createdAt,value
2022-08-05T00:01:55.452Z,5.53
2022-08-05T00:04:36.626Z,5.28
2022-08-05T00:07:27.237Z,5.18
2022-08-05T00:09:54.533Z,4.85
2022-08-05T00:12:24.435Z,4.82
2022-08-05T00:14:52.935Z,5.53
2022-08-05T00:17:21.929Z,4.85
2022-08-05T00:20:01.785Z,5.10
2022-08-05T00:22:30.977Z,5.28
2022-08-05T00:24:59.399Z,4.55
2022-08-05T00:27:36.109Z,5.13
2022-08-05T00:30:11.319Z,5.60
2022-08-05T00:32:40.465Z,4.35
2022-08-05T00:35:10.126Z,5.38
2022-08-05T00:37:52.993Z,4.80
2022-08-05T00:40:26.980Z,4.75
2022-08-05T00:42:59.610Z,4.60
2022-08-05T00:45:43.601Z,4.53
2022-08-05T00:48:13.896Z,4.82
2022-08-05T00:50:46.072Z,4.50
2022-08-05T00:54:01.325Z,4.43
2022-08-05T00:56:07.891Z,3.85
2022-08-05T00:58:38.918Z,4.05
2022-08-05T01:01:12.659Z,4.32
2022-08-05T01:03:41.742Z,4.20
2022-08-05T01:06:14.210Z,4.00
2022-08-05T01:08:47.137Z,4.40
2022-08-05T01:11:33.314Z,4.10
2022-08-05T01:14:15.576Z,4.30
2022-08-05T01:16:52.450Z,4.90
2022-08-05T01:20:01.746Z,5.30
2022-08-05T01:22:41.660Z,6.85
2022-08-05T01:25:53.496Z,7.63
2022-08-05T01:28:34.078Z,7.57
2022-08-05T01:31:10.391Z,7.70
2022-08-05T01:33:49.325Z,7.10
2022-08-05T01:36:28.100Z,8.50
2022-08-05T01:39:00.372Z,8.60
2022-08-05T01:41:37.598Z,9.25
2022-08-05T01:44:09.870Z,8.90
2022-08-05T01:46:42.002Z,10.55
2022-08-05T01:49:24.131Z,9.88
2022-08-05T01:51:59.700Z,9.95
2022-08-05T01:54:46.181Z,11.05
2022-08-05T01:58:29.218Z,12.73
2022-08-05T02:00:12.661Z,12.68
2022-08-05T02:02:54.723Z,13.15
2022-08-05T02:05:29.456Z,15.20
2022-08-05T02:08:01.159Z,18.10
2022-08-05T02:10:36.450Z,20.83
2022-08-05T02:13:16.125Z,26.13
2022-08-05T02:15:54.962Z,26.98
2022-08-05T02:18:34.953Z,25.85
2022-08-05T02:21:15.085Z,27.83
2022-08-05T02:23:49.287Z,24.33
2022-08-05T02:26:26.656Z,27.83
2022-08-05T02:28:58.163Z,31.08
2022-08-05T02:31:35.035Z,29.63
2022-08-05T02:34:09.228Z,31.33
2022-08-05T02:36:43.785Z,25.45
2022-08-05T02:39:14.169Z,25.13
2022-08-05T02:42:00.551Z,22.98
2022-08-05T02:44:31.916Z,23.60
2022-08-05T02:47:03.023Z,24.58
2022-08-05T02:49:40.331Z,27.17
2022-08-05T02:52:25.848Z,20.95
2022-08-05T02:55:01.842Z,21.83
2022-08-05T02:58:11.774Z,20.90
2022-08-05T03:00:25.483Z,21.70
2022-08-05T03:06:57.088Z,23.63
2022-08-05T03:08:16.577Z,25.33
2022-08-05T03:11:53.307Z,23.50
2022-08-05T03:13:51.438Z,24.95
2022-08-05T03:16:23.458Z,23.17
2022-08-05T03:18:54.018Z,25.77
2022-08-05T03:21:28.885Z,26.33
2022-08-05T03:24:02.788Z,24.60
2022-08-05T03:26:32.725Z,23.95
2022-08-05T03:29:01.523Z,25.52
2022-08-05T03:31:56.228Z,23.40
2022-08-05T03:34:21.282Z,22.50
2022-08-05T03:36:52.899Z,23.77
2022-08-05T03:39:27.017Z,25.60
2022-08-05T03:41:56.582Z,23.95
2022-08-05T03:44:25.409Z,22.63
2022-08-05T03:49:51.019Z,27.05
2022-08-05T03:52:37.866Z,26.48
2022-08-05T03:56:05.718Z,30.92
2022-08-05T03:58:15.996Z,29.05
2022-08-05T04:00:51.561Z,33.78
2022-08-05T04:03:28.168Z,37.67
2022-08-05T04:05:59.893Z,38.30
2022-08-05T04:08:36.291Z,33.72
2022-08-05T04:11:08.674Z,37.17
2022-08-05T04:13:51.027Z,38.65
2022-08-05T04:16:24.235Z,35.58
2022-08-05T04:18:54.785Z,37.50
2022-08-05T04:22:08.715Z,36.30
2022-08-05T04:24:19.704Z,39.47
2022-08-05T04:26:51.259Z,36.38
2022-08-05T04:29:19.979Z,39.20
2022-08-05T04:31:49.626Z,35.92
2022-08-05T04:34:32.255Z,33.17
2022-08-05T04:37:06.699Z,33.85
2022-08-05T04:39:35.397Z,32.83
2022-08-05T04:42:04.764Z,34.45
2022-08-05T04:44:33.061Z,36.00
2022-08-05T04:47:08.975Z,31.33
2022-08-05T04:50:02.508Z,32.53
2022-08-05T04:52:33.391Z,34.42
2022-08-05T04:55:13.940Z,35.92
2022-08-05T04:57:51.589Z,37.88
2022-08-05T05:00:23.383Z,39.72
2022-08-05T05:02:52.808Z,41.40
2022-08-05T05:05:28.143Z,40.53
2022-08-05T05:08:03.479Z,43.63
2022-08-05T05:10:38.932Z,42.17
2022-08-05T05:13:09.628Z,48.83
2022-08-05T05:15:56.522Z,49.20
2022-08-05T05:18:31.405Z,48.03
2022-08-05T05:21:04.190Z,48.42
2022-08-05T05:24:03.961Z,49.70
2022-08-05T05:26:28.109Z,49.25
2022-08-05T05:29:02.399Z,50.42
2022-08-05T05:34:02.493Z,50.85
2022-08-05T05:36:33.370Z,51.88
2022-08-05T05:39:10.869Z,51.55
2022-08-05T05:41:40.405Z,51.20
2022-08-05T05:44:35.730Z,51.08
2022-08-05T05:47:04.335Z,52.63
2022-08-05T05:49:33.527Z,52.03
2022-08-05T05:52:06.001Z,51.03
2022-08-05T05:54:50.172Z,55.50
2022-08-05T05:57:20.860Z,56.20
2022-08-05T05:59:49.753Z,57.50
2022-08-05T06:02:32.638Z,52.08
2022-08-05T06:05:10.520Z,52.50
2022-08-05T06:08:01.218Z,52.13
2022-08-05T06:10:37.409Z,49.40
2022-08-05T06:13:17.360Z,51.15
2022-08-05T06:16:29.146Z,49.83
2022-08-05T06:18:36.602Z,54.65
2022-08-05T06:21:08.001Z,54.35
2022-08-05T06:23:46.967Z,58.20
2022-08-05T06:26:23.947Z,58.15
2022-08-05T06:28:53.447Z,62.22
2022-08-05T06:31:22.594Z,60.15
2022-08-05T06:34:07.337Z,60.45
2022-08-05T06:36:57.218Z,63.95
2022-08-05T06:39:27.908Z,58.60
2022-08-05T06:42:01.246Z,57.30
2022-08-05T06:44:32.965Z,51.58
2022-08-05T06:47:02.378Z,52.05
2022-08-05T06:50:01.371Z,51.92
2022-08-05T06:52:36.693Z,50.83
2022-08-05T06:55:06.661Z,52.22
2022-08-05T06:57:57.981Z,50.70
2022-08-05T07:00:25.620Z,49.00
2022-08-05T07:02:54.902Z,45.97
2022-08-05T07:05:31.830Z,43.78
2022-08-05T07:08:10.913Z,43.17
2022-08-05T07:10:53.124Z,40.33
2022-08-05T07:17:59.465Z,41.67
2022-08-05T07:22:28.504Z,43.92
2022-08-05T07:25:54.757Z,42.00
2022-08-05T07:27:58.296Z,43.63
2022-08-05T07:30:33.404Z,31.77
2022-08-05T07:33:05.309Z,32.45
2022-08-05T07:36:04.399Z,29.40
2022-08-05T07:38:33.619Z,23.52
2022-08-05T07:42:09.118Z,27.33
2022-08-05T07:43:56.540Z,26.40
2022-08-05T07:46:28.738Z,29.80
2022-08-05T07:49:02.346Z,23.77
2022-08-05T07:51:41.143Z,24.20
2022-08-05T07:54:31.668Z,25.55
2022-08-05T07:57:17.554Z,24.63
2022-08-05T07:59:52.079Z,23.30
2022-08-05T08:02:30.950Z,22.30
2022-08-05T08:05:00.628Z,21.13
2022-08-05T08:07:39.780Z,22.90
2022-08-05T08:10:20.626Z,24.55
2022-08-05T08:12:50.015Z,25.63
2022-08-05T08:15:37.331Z,24.55
2022-08-05T08:18:13.859Z,23.08
2022-08-05T08:21:02.201Z,24.85
2022-08-05T08:24:02.973Z,24.02
2022-08-05T08:26:29.453Z,26.02
2022-08-05T08:29:21.970Z,23.42
2022-08-05T08:31:48.822Z,24.15
2022-08-05T08:34:18.983Z,23.23
2022-08-05T08:37:04.653Z,21.88
2022-08-05T08:39:37.488Z,22.23
2022-08-05T08:45:23.346Z,22.83
2022-08-05T08:48:07.138Z,17.73
2022-08-05T08:51:21.929Z,15.18
2022-08-05T08:53:35.617Z,18.03
2022-08-05T08:56:06.191Z,16.63
2022-08-05T08:58:43.415Z,18.65
2022-08-05T09:01:18.331Z,15.68
2022-08-05T09:03:54.353Z,15.98
2022-08-05T09:06:30.505Z,14.02
2022-08-05T09:09:01.410Z,14.38
2022-08-05T09:11:53.790Z,13.00
2022-08-05T09:14:56.768Z,12.88
2022-08-05T09:17:15.920Z,10.35
2022-08-05T09:20:02.392Z,12.27
2022-08-05T09:23:18.952Z,9.75
2022-08-05T09:26:01.097Z,8.43
2022-08-05T09:28:35.053Z,7.72
2022-08-05T09:31:22.925Z,8.05
2022-08-05T09:33:58.425Z,8.90
2022-08-05T09:39:39.290Z,8.00
2022-08-05T09:42:17.743Z,7.20
2022-08-05T09:44:56.828Z,8.90
2022-08-05T09:47:36.307Z,6.57
2022-08-05T09:50:37.303Z,8.23
2022-08-05T09:53:09.118Z,7.90
2022-08-05T09:55:57.383Z,7.78
2022-08-05T09:58:29.365Z,7.43
2022-08-05T10:01:13.360Z,7.78
2022-08-05T10:03:59.357Z,6.85
2022-08-05T10:06:31.117Z,7.75
2022-08-05T10:09:27.477Z,7.40
2022-08-05T10:12:18.640Z,8.25
2022-08-05T10:15:20.170Z,8.50
2022-08-05T10:18:12.650Z,8.50
2022-08-05T10:20:47.836Z,7.72
2022-08-05T10:23:34.534Z,8.40
2022-08-05T10:26:13.798Z,7.10
2022-08-05T10:28:47.342Z,7.10
2022-08-05T10:33:01.408Z,6.78
2022-08-05T10:34:09.573Z,6.85
2022-08-05T10:36:40.556Z,7.20
2022-08-05T10:39:25.260Z,6.63
2022-08-05T10:42:14.515Z,6.20
2022-08-05T10:44:49.192Z,5.55
2022-08-05T10:47:26.817Z,6.25
2022-08-05T10:50:36.639Z,6.10
2022-08-05T10:52:58.640Z,6.43
2022-08-05T10:55:30.298Z,5.53
2022-08-05T10:58:11.490Z,4.53
2022-08-05T11:00:48.038Z,5.70
2022-08-05T11:03:25.979Z,5.10
2022-08-05T11:06:08.501Z,5.95
2022-08-05T11:09:32.463Z,5.57
2022-08-05T11:12:50.462Z,6.20
2022-08-05T11:18:32.342Z,5.57
2022-08-05T11:21:11.222Z,5.32
2022-08-05T11:24:05.352Z,6.45
2022-08-05T11:26:40.921Z,6.20
2022-08-05T11:29:40.786Z,6.97
2022-08-05T11:32:26.287Z,5.55
2022-08-05T11:34:59.154Z,5.32
2022-08-05T11:38:29.890Z,4.32
2022-08-05T11:41:36.838Z,4.25
2022-08-05T11:44:05.742Z,5.22
2022-08-05T11:47:09.911Z,5.00
2022-08-05T11:49:34.100Z,3.05
2022-08-05T11:52:08.810Z,3.80
2022-08-05T11:54:43.627Z,4.00
2022-08-05T11:57:28.672Z,4.32
2022-08-05T11:59:59.766Z,3.85
2022-08-05T12:02:33.063Z,4.32
2022-08-05T12:05:08.227Z,4.70
2022-08-05T12:08:10.270Z,4.32
2022-08-05T12:10:45.707Z,4.20
2022-08-05T12:13:48.072Z,4.35
2022-08-05T12:16:14.775Z,4.50
2022-08-05T12:18:52.250Z,4.32
2022-08-05T12:21:24.943Z,4.60
2022-08-05T12:24:04.751Z,4.32
2022-08-05T12:26:35.631Z,4.47
2022-08-05T12:29:09.576Z,4.28
2022-08-05T12:31:49.778Z,4.18
2022-08-05T12:34:28.096Z,4.40
2022-08-05T12:36:59.228Z,4.38
2022-08-05T12:39:37.336Z,4.60
2022-08-05T12:42:14.672Z,4.50
2022-08-05T12:44:44.362Z,4.75
2022-08-05T12:47:25.560Z,3.90
2022-08-05T12:50:04.652Z,4.25
2022-08-05T12:52:39.742Z,5.00
2022-08-05T12:55:25.669Z,4.97
2022-08-05T12:58:38.855Z,4.65
2022-08-05T13:02:02.217Z,4.70
2022-08-05T13:03:41.343Z,4.75
2022-08-05T13:06:16.792Z,4.28
2022-08-05T13:08:50.759Z,5.35
2022-08-05T13:12:01.139Z,4.68
2022-08-05T13:14:25.122Z,4.75
2022-08-05T13:19:52.627Z,4.60
2022-08-05T13:22:29.731Z,3.95
2022-08-05T13:25:05.095Z,3.83
2022-08-05T13:27:40.285Z,4.95
2022-08-05T13:30:32.922Z,4.63
2022-08-05T13:33:01.606Z,4.40
2022-08-05T13:35:47.377Z,4.07
2022-08-05T13:38:30.330Z,4.30
2022-08-05T13:41:00.613Z,4.30
2022-08-05T13:43:45.689Z,4.15
2022-08-05T13:46:30.842Z,3.63
2022-08-05T13:49:10.575Z,3.60
2022-08-05T13:51:46.688Z,3.20
2022-08-05T13:54:21.161Z,2.92
2022-08-05T13:56:54.370Z,3.10
2022-08-05T13:59:26.963Z,2.88
2022-08-05T14:01:57.967Z,2.60
2022-08-05T14:04:50.500Z,2.67
2022-08-05T14:07:25.702Z,3.25
2022-08-05T14:10:18.378Z,2.80
2022-08-05T14:12:48.906Z,2.50
2022-08-05T14:16:07.071Z,2.90
2022-08-05T14:18:14.777Z,2.72
2022-08-05T14:20:48.987Z,2.28
2022-08-05T14:23:25.047Z,2.05
2022-08-05T14:25:59.464Z,2.50
2022-08-05T14:28:29.239Z,2.53
2022-08-05T14:31:00.600Z,2.45
2022-08-05T14:33:59.132Z,2.20
2022-08-05T14:36:23.440Z,2.08
2022-08-05T14:38:52.448Z,2.22
2022-08-05T14:41:22.454Z,2.35
2022-08-05T14:43:58.986Z,2.00
2022-08-05T14:46:35.074Z,1.85
2022-08-05T14:49:08.113Z,2.33
2022-08-05T14:51:38.097Z,2.33
2022-08-05T14:54:27.501Z,2.00
2022-08-05T14:56:56.458Z,2.20
2022-08-05T14:59:29.497Z,2.00
2022-08-05T15:02:15.920Z,2.22
2022-08-05T15:04:53.809Z,2.05
2022-08-05T15:08:06.697Z,2.53
2022-08-05T15:10:12.476Z,2.33
2022-08-05T15:13:00.619Z,2.15
2022-08-05T15:15:55.106Z,2.25
2022-08-05T15:18:20.157Z,1.85
2022-08-05T15:20:49.071Z,2.47
2022-08-05T15:23:17.861Z,2.20
2022-08-05T15:25:52.225Z,2.33
2022-08-05T15:28:27.656Z,2.40
2022-08-05T15:30:56.427Z,2.00
2022-08-05T15:34:04.945Z,1.80
2022-08-05T15:36:17.537Z,1.70
2022-08-05T15:41:00.573Z,1.70
2022-08-05T15:41:58.531Z,1.55
2022-08-05T15:44:28.329Z,1.30
2022-08-05T15:46:59.442Z,1.10
2022-08-05T15:49:48.171Z,1.20
2022-08-05T15:52:29.578Z,1.17
2022-08-05T15:55:10.350Z,1.20
2022-08-05T15:57:45.112Z,1.60
2022-08-05T16:00:17.385Z,1.33
2022-08-05T16:03:00.458Z,1.20
2022-08-05T16:05:30.501Z,1.65
2022-08-05T16:08:00.070Z,1.50
2022-08-05T16:10:29.526Z,1.50
2022-08-05T16:12:59.387Z,1.60
2022-08-05T16:15:32.395Z,1.30
2022-08-05T16:18:01.078Z,1.35
2022-08-05T16:20:34.290Z,1.50
2022-08-05T16:23:03.591Z,1.45
2022-08-05T16:25:33.910Z,1.50
2022-08-05T16:28:05.722Z,1.30
2022-08-05T16:30:36.124Z,1.50
2022-08-05T16:33:04.993Z,1.40
2022-08-05T16:35:41.950Z,1.50
2022-08-05T16:38:18.848Z,1.67
2022-08-05T16:40:59.527Z,1.45
2022-08-05T16:43:31.722Z,1.20
2022-08-05T16:46:04.125Z,1.38
2022-08-05T16:48:37.877Z,1.65
2022-08-05T16:51:10.766Z,1.30
2022-08-05T16:54:04.147Z,1.20
2022-08-05T16:56:34.681Z,1.55
2022-08-05T16:59:08.708Z,1.52
2022-08-05T17:01:54.152Z,0.80
2022-08-05T17:04:26.466Z,1.10
2022-08-05T17:07:00.911Z,1.02
2022-08-05T17:09:57.527Z,1.02
2022-08-05T17:12:22.747Z,0.80
2022-08-05T17:15:09.678Z,1.10
2022-08-05T17:17:44.331Z,1.20
2022-08-05T17:20:14.733Z,1.13
2022-08-05T17:22:45.025Z,0.85
2022-08-05T17:25:34.204Z,0.88
2022-08-05T17:28:01.966Z,0.90
2022-08-05T17:30:30.592Z,0.73
2022-08-05T17:32:59.524Z,1.45
2022-08-05T17:35:32.553Z,0.95
2022-08-05T17:38:17.687Z,0.63
2022-08-05T17:40:47.597Z,1.27
2022-08-05T17:43:17.947Z,0.80
2022-08-05T17:46:06.917Z,0.90
2022-08-05T17:51:08.980Z,1.13
2022-08-05T17:53:39.212Z,0.80
2022-08-05T17:56:09.339Z,1.13
2022-08-05T17:58:39.463Z,1.20
2022-08-05T18:01:09.776Z,1.00
2022-08-05T18:03:58.469Z,0.85
2022-08-05T18:06:31.215Z,0.90
2022-08-05T18:09:03.710Z,1.02
2022-08-05T18:11:33.047Z,0.95
2022-08-05T18:14:04.524Z,1.02
2022-08-05T18:16:43.670Z,0.80
2022-08-05T18:19:22.675Z,0.95
2022-08-05T18:22:09.245Z,1.00
2022-08-05T18:24:41.939Z,1.20
2022-08-05T18:27:12.896Z,0.75
2022-08-05T18:29:54.384Z,0.90
2022-08-05T18:32:28.193Z,0.98
2022-08-05T18:34:58.127Z,0.60
2022-08-05T18:37:33.231Z,1.00
2022-08-05T18:40:33.930Z,1.17
2022-08-05T18:42:54.388Z,0.90
2022-08-05T18:45:23.144Z,0.88
2022-08-05T18:47:56.633Z,1.00
2022-08-05T18:50:45.303Z,1.38
2022-08-05T18:53:20.482Z,1.15
2022-08-05T18:55:54.589Z,1.10
2022-08-05T18:58:27.105Z,1.13
2022-08-05T19:00:57.559Z,1.20
2022-08-05T19:03:53.171Z,1.45
2022-08-05T19:06:20.140Z,1.08
2022-08-05T19:08:51.047Z,1.08
2022-08-05T19:11:28.422Z,1.00
2022-08-05T19:14:00.687Z,1.10
2022-08-05T19:16:35.317Z,1.20
2022-08-05T19:19:15.370Z,0.90
2022-08-05T19:21:51.618Z,0.90
2022-08-05T19:24:34.735Z,0.80
2022-08-05T19:27:08.130Z,0.80
2022-08-05T19:29:39.325Z,0.95
2022-08-05T19:32:11.477Z,1.00
2022-08-05T19:37:11.981Z,0.90
2022-08-05T19:39:45.784Z,1.10
2022-08-05T19:42:35.021Z,0.90
2022-08-05T19:45:05.992Z,0.95
2022-08-05T19:47:37.709Z,1.08
2022-08-05T19:50:07.721Z,0.90
2022-08-05T19:52:39.234Z,0.75
2022-08-05T19:56:15.093Z,0.93
2022-08-05T19:58:19.554Z,0.70
2022-08-05T20:00:48.419Z,0.85
2022-08-05T20:03:18.430Z,1.20
2022-08-05T20:05:51.345Z,1.10
2022-08-05T20:08:24.495Z,0.90
2022-08-05T20:10:53.569Z,1.08
2022-08-05T20:13:54.788Z,1.17
2022-08-05T20:16:12.598Z,0.80
2022-08-05T20:18:48.347Z,1.40
2022-08-05T20:21:25.332Z,1.30
2022-08-05T20:23:53.718Z,1.00
2022-08-05T20:26:25.771Z,1.75
2022-08-05T20:28:58.097Z,0.90
2022-08-05T20:31:42.034Z,1.15
2022-08-05T20:34:12.681Z,1.23
2022-08-05T20:36:43.243Z,1.42
2022-08-05T20:39:13.357Z,1.15
2022-08-05T20:44:29.968Z,1.52
2022-08-05T20:47:00.747Z,1.73
2022-08-05T20:49:29.375Z,1.40
2022-08-05T20:51:58.606Z,1.20
2022-08-05T20:54:43.329Z,1.00
2022-08-05T20:57:24.793Z,1.10
2022-08-05T21:00:20.876Z,0.90
2022-08-05T21:03:06.119Z,1.33
2022-08-05T21:05:53.543Z,1.20
2022-08-05T21:08:27.925Z,1.38
2022-08-05T21:11:09.075Z,1.33
2022-08-05T21:13:55.863Z,1.30
2022-08-05T21:16:29.569Z,1.23
2022-08-05T21:18:59.992Z,1.23
2022-08-05T21:21:39.240Z,1.23
2022-08-05T21:24:12.751Z,1.67
2022-08-05T21:26:45.942Z,1.30
2022-08-05T21:29:17.068Z,1.40
2022-08-05T21:31:46.880Z,1.52
2022-08-05T21:34:18.064Z,1.30
2022-08-05T21:36:46.667Z,1.50
2022-08-05T21:39:26.612Z,1.40
2022-08-05T21:42:02.008Z,1.65
2022-08-05T21:44:33.899Z,1.63
2022-08-05T21:47:03.993Z,1.83
2022-08-05T21:49:48.386Z,1.33
2022-08-05T21:52:29.050Z,1.30
2022-08-05T21:55:06.863Z,1.38
2022-08-05T21:57:37.300Z,1.30
2022-08-05T22:00:13.275Z,1.38
2022-08-05T22:02:45.002Z,1.42
2022-08-05T22:05:14.841Z,1.80
2022-08-05T22:07:59.082Z,1.83
2022-08-05T22:10:29.134Z,1.60
2022-08-05T22:12:59.067Z,1.50
2022-08-05T22:16:00.723Z,1.50
2022-08-05T22:18:28.073Z,1.60
2022-08-05T22:21:04.224Z,1.45
2022-08-05T22:24:08.845Z,1.75
2022-08-05T22:27:16.466Z,1.80
2022-08-05T22:29:46.066Z,1.70
2022-08-05T22:32:17.452Z,1.67
2022-08-05T22:34:47.752Z,1.77
2022-08-05T22:37:16.926Z,2.05
2022-08-05T22:39:50.388Z,1.58
2022-08-05T22:42:25.986Z,1.83
2022-08-05T22:44:56.754Z,1.52
2022-08-05T22:47:28.916Z,2.00
2022-08-05T22:50:20.594Z,1.52
2022-08-05T22:52:52.527Z,1.85
2022-08-05T22:55:22.151Z,1.70
2022-08-05T22:57:51.417Z,1.58
2022-08-05T23:00:22.684Z,1.55
2022-08-05T23:02:53.334Z,1.98
2022-08-05T23:05:24.514Z,1.60
2022-08-05T23:07:53.147Z,1.77
2022-08-05T23:10:23.484Z,2.22
2022-08-05T23:12:54.371Z,1.80
2022-08-05T23:15:29.483Z,2.05
2022-08-05T23:18:02.244Z,2.20
2022-08-05T23:20:37.553Z,1.60
2022-08-05T23:23:11.778Z,1.77
2022-08-05T23:25:50.923Z,1.92
2022-08-05T23:28:23.957Z,2.00
2022-08-05T23:31:02.212Z,1.52
2022-08-05T23:34:04.226Z,1.70
2022-08-05T23:36:40.103Z,1.63
2022-08-05T23:39:16.281Z,1.90
2022-08-05T23:41:48.427Z,2.42
2022-08-05T23:44:17.459Z,2.22
2022-08-05T23:46:48.831Z,1.70
2022-08-05T23:49:22.281Z,2.28
2022-08-05T23:52:12.675Z,2.78
2022-08-05T23:54:45.911Z,2.42
2022-08-05T23:57:14.745Z,2.25
